sensor_id;sensor_type;location;lat;lon;timestamp;pressure;altitude;pressure_sealevel;temperature;humidity
7180;BME280;3631;42.152;24.756;2023-04-01T00:00:47;98563.22;;;12.25;87.97
7180;BME280;3631;42.152;24.756;2023-04-01T00:03:46;98575.78;;;12.17;88.32
7180;BME280;3631;42.152;24.756;2023-04-01T00:06:24;98556.09;;;12.12;88.83
7180;BME280;3631;42.152;24.756;2023-04-01T00:08:59;98545.84;;;12.09;89.29
7180;BME280;3631;42.152;24.756;2023-04-01T00:11:54;98557.47;;;12.02;90.01
7180;BME280;3631;42.152;24.756;2023-04-01T00:14:43;98566.88;;;11.87;91.79
7180;BME280;3631;42.152;24.756;2023-04-01T00:17:15;98562.59;;;11.86;92.01
7180;BME280;3631;42.152;24.756;2023-04-01T00:19:46;98555.16;;;11.78;93.11
7180;BME280;3631;42.152;24.756;2023-04-01T00:22:14;98550.81;;;11.79;92.57
7180;BME280;3631;42.152;24.756;2023-04-01T00:24:42;98564.91;;;11.92;92.00
7180;BME280;3631;42.152;24.756;2023-04-01T00:27:33;98578.44;;;11.98;91.46
7180;BME280;3631;42.152;24.756;2023-04-01T00:30:35;98561.91;;;11.99;90.74
7180;BME280;3631;42.152;24.756;2023-04-01T00:33:27;98563.22;;;12.08;90.29
7180;BME280;3631;42.152;24.756;2023-04-01T00:36:44;98563.38;;;12.05;90.67
7180;BME280;3631;42.152;24.756;2023-04-01T00:39:47;98562.69;;;12.02;90.58
7180;BME280;3631;42.152;24.756;2023-04-01T00:42:41;98573.53;;;12.10;89.88
7180;BME280;3631;42.152;24.756;2023-04-01T00:45:38;98561.25;;;11.96;90.34
7180;BME280;3631;42.152;24.756;2023-04-01T00:48:30;98559.44;;;11.96;91.27
7180;BME280;3631;42.152;24.756;2023-04-01T00:51:43;98559.25;;;12.01;91.45
7180;BME280;3631;42.152;24.756;2023-04-01T00:54:26;98568.28;;;11.94;93.22
7180;BME280;3631;42.152;24.756;2023-04-01T00:57:36;98564.59;;;11.81;93.87
7180;BME280;3631;42.152;24.756;2023-04-01T01:00:40;98560.81;;;11.86;93.16
7180;BME280;3631;42.152;24.756;2023-04-01T01:03:45;98555.78;;;12.00;91.50
7180;BME280;3631;42.152;24.756;2023-04-01T01:06:46;98551.88;;;12.09;90.01
7180;BME280;3631;42.152;24.756;2023-04-01T01:09:52;98536.28;;;12.09;89.67
7180;BME280;3631;42.152;24.756;2023-04-01T01:12:46;98552.59;;;12.13;90.32
7180;BME280;3631;42.152;24.756;2023-04-01T01:15:56;98556.34;;;12.07;90.29
7180;BME280;3631;42.152;24.756;2023-04-01T01:18:53;98558.78;;;12.10;89.64
7180;BME280;3631;42.152;24.756;2023-04-01T01:22:12;98553.34;;;11.97;90.96
7180;BME280;3631;42.152;24.756;2023-04-01T01:25:54;98554.13;;;11.82;90.85
7180;BME280;3631;42.152;24.756;2023-04-01T01:29:16;98553.28;;;11.82;91.49
7180;BME280;3631;42.152;24.756;2023-04-01T01:36:00;98547.94;;;11.85;90.89
7180;BME280;3631;42.152;24.756;2023-04-01T01:38:59;98537.34;;;11.88;90.18
7180;BME280;3631;42.152;24.756;2023-04-01T01:42:04;98534.94;;;11.85;90.62
7180;BME280;3631;42.152;24.756;2023-04-01T01:45:08;98535.22;;;11.79;91.06
7180;BME280;3631;42.152;24.756;2023-04-01T01:48:21;98535.34;;;11.76;91.50
7180;BME280;3631;42.152;24.756;2023-04-01T01:51:39;98523.16;;;11.95;89.64
7180;BME280;3631;42.152;24.756;2023-04-01T01:54:29;98519.53;;;11.97;89.72
7180;BME280;3631;42.152;24.756;2023-04-01T01:57:34;98511.97;;;11.93;90.23
7180;BME280;3631;42.152;24.756;2023-04-01T02:00:26;98508.00;;;11.86;91.12
7180;BME280;3631;42.152;24.756;2023-04-01T02:03:38;98502.50;;;11.92;90.88
7180;BME280;3631;42.152;24.756;2023-04-01T02:09:46;98503.63;;;11.86;91.12
7180;BME280;3631;42.152;24.756;2023-04-01T02:12:45;98500.78;;;11.74;92.25
7180;BME280;3631;42.152;24.756;2023-04-01T02:15:37;98506.59;;;11.61;93.60
7180;BME280;3631;42.152;24.756;2023-04-01T02:18:26;98507.94;;;11.51;94.57
7180;BME280;3631;42.152;24.756;2023-04-01T02:21:36;98511.47;;;11.50;94.66
7180;BME280;3631;42.152;24.756;2023-04-01T02:24:23;98516.03;;;11.45;94.97
7180;BME280;3631;42.152;24.756;2023-04-01T02:27:23;98534.09;;;11.48;94.54
7180;BME280;3631;42.152;24.756;2023-04-01T02:30:29;98531.19;;;11.54;94.02
7180;BME280;3631;42.152;24.756;2023-04-01T02:33:23;98518.03;;;11.57;93.74
7180;BME280;3631;42.152;24.756;2023-04-01T02:36:30;98500.00;;;11.54;94.06
7180;BME280;3631;42.152;24.756;2023-04-01T02:39:20;98496.47;;;11.55;93.65
7180;BME280;3631;42.152;24.756;2023-04-01T02:42:13;98491.16;;;11.58;93.17
7180;BME280;3631;42.152;24.756;2023-04-01T02:45:29;98495.50;;;11.58;93.19
7180;BME280;3631;42.152;24.756;2023-04-01T02:48:30;98499.91;;;11.39;94.69
7180;BME280;3631;42.152;24.756;2023-04-01T02:54:45;98505.63;;;11.28;96.67
7180;BME280;3631;42.152;24.756;2023-04-01T02:57:45;98489.88;;;11.31;96.67
7180;BME280;3631;42.152;24.756;2023-04-01T03:00:45;98487.06;;;11.36;96.36
7180;BME280;3631;42.152;24.756;2023-04-01T03:03:27;98494.94;;;11.34;96.65
7180;BME280;3631;42.152;24.756;2023-04-01T03:06:39;98495.84;;;11.33;95.61
7180;BME280;3631;42.152;24.756;2023-04-01T03:09:38;98490.69;;;11.14;96.46
7180;BME280;3631;42.152;24.756;2023-04-01T03:12:35;98497.50;;;10.98;97.10
7180;BME280;3631;42.152;24.756;2023-04-01T03:15:45;98500.25;;;10.76;98.37
7180;BME280;3631;42.152;24.756;2023-04-01T03:18:43;98506.41;;;10.55;99.74
7180;BME280;3631;42.152;24.756;2023-04-01T03:21:33;98494.59;;;10.29;100.00
7180;BME280;3631;42.152;24.756;2023-04-01T03:24:19;98501.88;;;10.21;100.00
7180;BME280;3631;42.152;24.756;2023-04-01T03:27:23;98481.44;;;10.34;100.00
7180;BME280;3631;42.152;24.756;2023-04-01T03:30:22;98473.78;;;10.31;100.00
7180;BME280;3631;42.152;24.756;2023-04-01T03:33:10;98490.13;;;10.12;100.00
7180;BME280;3631;42.152;24.756;2023-04-01T03:35:58;98496.84;;;9.96;100.00
7180;BME280;3631;42.152;24.756;2023-04-01T03:39:03;98475.06;;;9.81;100.00
7180;BME280;3631;42.152;24.756;2023-04-01T03:42:11;98464.53;;;9.84;100.00
7180;BME280;3631;42.152;24.756;2023-04-01T03:45:03;98462.72;;;9.87;100.00
7180;BME280;3631;42.152;24.756;2023-04-01T03:47:57;98462.72;;;9.87;100.00
7180;BME280;3631;42.152;24.756;2023-04-01T03:51:05;98472.75;;;9.94;100.00
7180;BME280;3631;42.152;24.756;2023-04-01T03:54:42;98473.81;;;9.90;100.00
7180;BME280;3631;42.152;24.756;2023-04-01T03:57:30;98459.56;;;9.80;100.00
7180;BME280;3631;42.152;24.756;2023-04-01T04:00:45;98464.03;;;9.76;100.00
7180;BME280;3631;42.152;24.756;2023-04-01T04:07:42;98456.75;;;9.64;100.00
7180;BME280;3631;42.152;24.756;2023-04-01T04:10:40;98456.03;;;9.61;100.00
7180;BME280;3631;42.152;24.756;2023-04-01T04:13:53;98457.66;;;9.63;100.00
7180;BME280;3631;42.152;24.756;2023-04-01T04:16:52;98453.59;;;9.78;100.00
7180;BME280;3631;42.152;24.756;2023-04-01T04:19:52;98447.38;;;10.02;100.00
7180;BME280;3631;42.152;24.756;2023-04-01T04:22:48;98459.25;;;10.06;100.00
7180;BME280;3631;42.152;24.756;2023-04-01T04:25:38;98458.75;;;10.18;100.00
7180;BME280;3631;42.152;24.756;2023-04-01T04:28:22;98470.56;;;10.26;100.00
7180;BME280;3631;42.152;24.756;2023-04-01T04:31:18;98464.06;;;10.36;100.00
7180;BME280;3631;42.152;24.756;2023-04-01T04:34:04;98460.63;;;10.54;100.00
7180;BME280;3631;42.152;24.756;2023-04-01T04:36:44;98459.22;;;10.66;100.00
7180;BME280;3631;42.152;24.756;2023-04-01T04:39:34;98444.91;;;10.76;99.64
7180;BME280;3631;42.152;24.756;2023-04-01T04:42:16;98466.16;;;10.84;99.14
7180;BME280;3631;42.152;24.756;2023-04-01T04:45:07;98467.84;;;10.85;99.78
7180;BME280;3631;42.152;24.756;2023-04-01T04:47:49;98460.19;;;11.01;98.14
7180;BME280;3631;42.152;24.756;2023-04-01T04:50:31;98471.34;;;11.03;98.49
7180;BME280;3631;42.152;24.756;2023-04-01T04:53:11;98464.22;;;11.06;98.04
7180;BME280;3631;42.152;24.756;2023-04-01T04:56:03;98466.47;;;11.14;97.08
7180;BME280;3631;42.152;24.756;2023-04-01T04:58:57;98470.13;;;11.10;98.27
7180;BME280;3631;42.152;24.756;2023-04-01T05:02:08;98468.31;;;11.12;98.05
7180;BME280;3631;42.152;24.756;2023-04-01T05:04:59;98465.06;;;11.25;98.12
7180;BME280;3631;42.152;24.756;2023-04-01T05:07:44;98461.47;;;11.28;97.02
7180;BME280;3631;42.152;24.756;2023-04-01T05:10:22;98464.53;;;11.36;96.87
7180;BME280;3631;42.152;24.756;2023-04-01T05:13:11;98464.53;;;11.53;96.18
7180;BME280;3631;42.152;24.756;2023-04-01T05:15:43;98468.97;;;11.69;93.89
7180;BME280;3631;42.152;24.756;2023-04-01T05:18:15;98445.59;;;11.69;93.13
7180;BME280;3631;42.152;24.756;2023-04-01T05:20:51;98456.25;;;11.81;92.45
7180;BME280;3631;42.152;24.756;2023-04-01T05:23:25;98444.09;;;11.82;92.41
7180;BME280;3631;42.152;24.756;2023-04-01T05:25:57;98451.63;;;11.86;92.52
7180;BME280;3631;42.152;24.756;2023-04-01T05:28:32;98451.41;;;11.74;94.06
7180;BME280;3631;42.152;24.756;2023-04-01T05:31:05;98442.84;;;11.89;93.12
7180;BME280;3631;42.152;24.756;2023-04-01T05:33:44;98445.91;;;11.80;92.49
7180;BME280;3631;42.152;24.756;2023-04-01T05:36:33;98454.63;;;11.79;92.13
7180;BME280;3631;42.152;24.756;2023-04-01T05:39:11;98443.38;;;11.78;91.76
7180;BME280;3631;42.152;24.756;2023-04-01T05:41:47;98427.03;;;11.59;92.39
7180;BME280;3631;42.152;24.756;2023-04-01T05:44:36;98421.06;;;11.57;92.95
7180;BME280;3631;42.152;24.756;2023-04-01T05:47:12;98415.00;;;11.56;92.67
7180;BME280;3631;42.152;24.756;2023-04-01T05:49:59;98411.78;;;11.51;93.40
7180;BME280;3631;42.152;24.756;2023-04-01T05:52:34;98401.09;;;11.40;94.91
7180;BME280;3631;42.152;24.756;2023-04-01T05:55:24;98383.00;;;11.39;95.27
7180;BME280;3631;42.152;24.756;2023-04-01T05:57:57;98398.28;;;11.45;95.15
7180;BME280;3631;42.152;24.756;2023-04-01T06:00:38;98399.88;;;11.47;94.97
7180;BME280;3631;42.152;24.756;2023-04-01T06:03:18;98366.34;;;11.25;96.72
7180;BME280;3631;42.152;24.756;2023-04-01T06:06:11;98388.56;;;11.14;98.01
7180;BME280;3631;42.152;24.756;2023-04-01T06:08:46;98376.97;;;11.21;98.45
7180;BME280;3631;42.152;24.756;2023-04-01T06:11:35;98397.59;;;11.24;97.94
7180;BME280;3631;42.152;24.756;2023-04-01T06:14:31;98380.16;;;11.09;99.73
7180;BME280;3631;42.152;24.756;2023-04-01T06:17:38;98335.72;;;11.15;99.53
7180;BME280;3631;42.152;24.756;2023-04-01T06:20:46;98357.03;;;11.39;98.18
7180;BME280;3631;42.152;24.756;2023-04-01T06:24:05;98366.34;;;11.43;98.12
7180;BME280;3631;42.152;24.756;2023-04-01T06:27:06;98357.22;;;11.51;97.99
7180;BME280;3631;42.152;24.756;2023-04-01T06:30:18;98352.50;;;11.59;97.15
7180;BME280;3631;42.152;24.756;2023-04-01T06:33:30;98367.78;;;11.48;98.86
7180;BME280;3631;42.152;24.756;2023-04-01T06:36:40;98364.56;;;11.60;98.39
7180;BME280;3631;42.152;24.756;2023-04-01T06:39:27;98361.13;;;11.60;98.20
7180;BME280;3631;42.152;24.756;2023-04-01T06:42:29;98359.66;;;11.72;97.43
7180;BME280;3631;42.152;24.756;2023-04-01T06:45:20;98361.03;;;11.79;97.11
7180;BME280;3631;42.152;24.756;2023-04-01T06:48:16;98361.25;;;11.74;97.62
7180;BME280;3631;42.152;24.756;2023-04-01T06:51:13;98353.75;;;11.85;97.08
7180;BME280;3631;42.152;24.756;2023-04-01T06:53:54;98355.81;;;12.12;96.13
7180;BME280;3631;42.152;24.756;2023-04-01T06:56:36;98365.84;;;12.51;93.23
7180;BME280;3631;42.152;24.756;2023-04-01T06:59:23;98369.50;;;12.78;89.96
7180;BME280;3631;42.152;24.756;2023-04-01T07:02:19;98365.75;;;13.14;87.50
7180;BME280;3631;42.152;24.756;2023-04-01T07:05:03;98365.53;;;13.18;86.70
7180;BME280;3631;42.152;24.756;2023-04-01T07:07:43;98374.00;;;13.22;86.58
7180;BME280;3631;42.152;24.756;2023-04-01T07:10:23;98366.75;;;13.27;86.37
7180;BME280;3631;42.152;24.756;2023-04-01T07:13:04;98345.97;;;13.41;85.70
7180;BME280;3631;42.152;24.756;2023-04-01T07:15:43;98342.50;;;13.55;84.50
7180;BME280;3631;42.152;24.756;2023-04-01T07:18:29;98335.28;;;13.74;83.64
7180;BME280;3631;42.152;24.756;2023-04-01T07:21:12;98346.09;;;13.96;82.41
7180;BME280;3631;42.152;24.756;2023-04-01T07:24:15;98334.06;;;14.08;80.64
7180;BME280;3631;42.152;24.756;2023-04-01T07:27:26;98328.72;;;14.24;79.77
7180;BME280;3631;42.152;24.756;2023-04-01T07:30:41;98324.34;;;14.24;79.68
7180;BME280;3631;42.152;24.756;2023-04-01T07:33:49;98309.84;;;14.06;81.96
7180;BME280;3631;42.152;24.756;2023-04-01T07:36:46;98312.44;;;14.20;81.30
7180;BME280;3631;42.152;24.756;2023-04-01T07:39:47;98325.09;;;14.26;79.88
7180;BME280;3631;42.152;24.756;2023-04-01T07:42:49;98320.09;;;14.09;81.52
7180;BME280;3631;42.152;24.756;2023-04-01T07:45:39;98308.81;;;14.08;82.07
7180;BME280;3631;42.152;24.756;2023-04-01T07:48:23;98312.97;;;14.25;80.88
7180;BME280;3631;42.152;24.756;2023-04-01T07:51:09;98302.94;;;14.19;81.04
7180;BME280;3631;42.152;24.756;2023-04-01T07:54:09;98312.56;;;14.45;79.63
7180;BME280;3631;42.152;24.756;2023-04-01T07:57:03;98317.72;;;14.74;77.99
7180;BME280;3631;42.152;24.756;2023-04-01T08:00:07;98324.00;;;15.11;75.23
7180;BME280;3631;42.152;24.756;2023-04-01T08:03:16;98317.34;;;14.93;75.84
7180;BME280;3631;42.152;24.756;2023-04-01T08:06:10;98307.59;;;14.82;76.24
7180;BME280;3631;42.152;24.756;2023-04-01T08:12:34;98288.88;;;14.34;79.51
7180;BME280;3631;42.152;24.756;2023-04-01T08:15:33;98294.69;;;14.25;80.02
7180;BME280;3631;42.152;24.756;2023-04-01T08:18:36;98276.56;;;14.09;81.59
7180;BME280;3631;42.152;24.756;2023-04-01T08:21:17;98274.81;;;13.96;83.09
7180;BME280;3631;42.152;24.756;2023-04-01T08:24:16;98271.47;;;13.94;83.75
7180;BME280;3631;42.152;24.756;2023-04-01T08:27:14;98271.28;;;13.82;84.69
7180;BME280;3631;42.152;24.756;2023-04-01T08:30:15;98268.69;;;13.82;85.22
7180;BME280;3631;42.152;24.756;2023-04-01T08:33:00;98259.84;;;13.85;86.19
7180;BME280;3631;42.152;24.756;2023-04-01T08:36:00;98256.31;;;13.86;85.47
7180;BME280;3631;42.152;24.756;2023-04-01T08:38:52;98251.94;;;13.72;86.43
7180;BME280;3631;42.152;24.756;2023-04-01T08:42:15;98249.88;;;13.77;86.35
7180;BME280;3631;42.152;24.756;2023-04-01T08:55:38;98229.88;;;14.46;80.71
7180;BME280;3631;42.152;24.756;2023-04-01T08:58:51;98213.41;;;14.58;79.37
7180;BME280;3631;42.152;24.756;2023-04-01T09:02:28;98204.34;;;14.64;78.89
7180;BME280;3631;42.152;24.756;2023-04-01T09:05:53;98207.09;;;14.75;77.83
7180;BME280;3631;42.152;24.756;2023-04-01T09:09:19;98191.09;;;14.67;78.11
7180;BME280;3631;42.152;24.756;2023-04-01T09:12:40;98187.13;;;14.74;77.72
7180;BME280;3631;42.152;24.756;2023-04-01T09:15:49;98185.44;;;14.73;77.50
7180;BME280;3631;42.152;24.756;2023-04-01T09:19:16;98175.16;;;14.57;79.25
7180;BME280;3631;42.152;24.756;2023-04-01T09:22:26;98159.94;;;14.51;79.54
7180;BME280;3631;42.152;24.756;2023-04-01T09:25:43;98148.66;;;14.50;79.76
7180;BME280;3631;42.152;24.756;2023-04-01T09:28:50;98155.88;;;14.60;79.95
7180;BME280;3631;42.152;24.756;2023-04-01T09:32:27;98149.91;;;14.58;80.23
7180;BME280;3631;42.152;24.756;2023-04-01T09:35:47;98135.31;;;14.55;80.46
7180;BME280;3631;42.152;24.756;2023-04-01T09:39:09;98134.16;;;14.72;80.40
7180;BME280;3631;42.152;24.756;2023-04-01T09:42:23;98129.97;;;14.95;78.31
7180;BME280;3631;42.152;24.756;2023-04-01T09:45:41;98136.38;;;14.78;79.67
7180;BME280;3631;42.152;24.756;2023-04-01T09:55:34;98132.28;;;15.12;77.74
7180;BME280;3631;42.152;24.756;2023-04-01T10:18:07;98085.50;;;16.28;69.98
7180;BME280;3631;42.152;24.756;2023-04-01T10:24:25;98050.88;;;16.70;67.23
7180;BME280;3631;42.152;24.756;2023-04-01T10:30:21;98028.28;;;16.81;66.20
7180;BME280;3631;42.152;24.756;2023-04-01T10:36:44;98053.50;;;16.82;66.27
7180;BME280;3631;42.152;24.756;2023-04-01T10:39:44;98033.25;;;16.73;66.28
7180;BME280;3631;42.152;24.756;2023-04-01T10:42:53;98031.94;;;16.78;66.48
7180;BME280;3631;42.152;24.756;2023-04-01T10:46:05;98004.53;;;16.93;66.00
7180;BME280;3631;42.152;24.756;2023-04-01T10:49:08;97991.06;;;17.09;65.08
7180;BME280;3631;42.152;24.756;2023-04-01T10:52:10;97977.22;;;17.18;64.65
7180;BME280;3631;42.152;24.756;2023-04-01T10:55:09;97968.63;;;17.16;65.06
7180;BME280;3631;42.152;24.756;2023-04-01T10:58:07;97958.88;;;17.18;64.71
7180;BME280;3631;42.152;24.756;2023-04-01T11:07:52;97945.78;;;17.82;62.75
7180;BME280;3631;42.152;24.756;2023-04-01T11:14:24;97957.38;;;18.31;60.46
7180;BME280;3631;42.152;24.756;2023-04-01T11:17:40;97944.56;;;18.58;59.43
7180;BME280;3631;42.152;24.756;2023-04-01T11:26:52;97926.09;;;18.79;58.71
7180;BME280;3631;42.152;24.756;2023-04-01T11:30:10;97926.47;;;18.65;58.70
7180;BME280;3631;42.152;24.756;2023-04-01T11:32:59;97915.56;;;18.69;58.71
7180;BME280;3631;42.152;24.756;2023-04-01T11:35:56;97919.69;;;18.62;58.99
7180;BME280;3631;42.152;24.756;2023-04-01T11:41:38;97895.44;;;19.37;57.18
7180;BME280;3631;42.152;24.756;2023-04-01T11:44:29;97888.25;;;19.68;55.99
7180;BME280;3631;42.152;24.756;2023-04-01T11:51:26;97870.38;;;19.81;55.20
7180;BME280;3631;42.152;24.756;2023-04-01T11:54:25;97863.31;;;19.43;55.67
7180;BME280;3631;42.152;24.756;2023-04-01T12:04:04;97871.09;;;19.54;56.78
7180;BME280;3631;42.152;24.756;2023-04-01T12:07:10;97867.09;;;19.50;56.86
7180;BME280;3631;42.152;24.756;2023-04-01T12:10:05;97861.25;;;19.56;56.55
7180;BME280;3631;42.152;24.756;2023-04-01T12:13:06;97859.19;;;19.50;56.71
7180;BME280;3631;42.152;24.756;2023-04-01T12:16:12;97866.91;;;19.42;57.21
7180;BME280;3631;42.152;24.756;2023-04-01T12:19:17;97854.91;;;19.49;57.37
7180;BME280;3631;42.152;24.756;2023-04-01T12:22:17;97828.59;;;19.49;57.45
7180;BME280;3631;42.152;24.756;2023-04-01T12:25:11;97824.28;;;19.48;57.96
7180;BME280;3631;42.152;24.756;2023-04-01T12:28:04;97802.13;;;19.61;57.63
7180;BME280;3631;42.152;24.756;2023-04-01T12:33:51;97799.25;;;19.91;56.42
7180;BME280;3631;42.152;24.756;2023-04-01T12:36:57;97793.31;;;19.79;56.19
7180;BME280;3631;42.152;24.756;2023-04-01T12:40:13;97786.47;;;19.96;55.75
7180;BME280;3631;42.152;24.756;2023-04-01T12:43:33;97783.63;;;19.80;56.11
7180;BME280;3631;42.152;24.756;2023-04-01T12:46:32;97777.38;;;19.81;56.53
7180;BME280;3631;42.152;24.756;2023-04-01T12:56:09;97773.66;;;20.11;56.02
7180;BME280;3631;42.152;24.756;2023-04-01T12:59:31;97769.47;;;20.18;55.88
7180;BME280;3631;42.152;24.756;2023-04-01T13:02:50;97762.28;;;20.10;56.20
7180;BME280;3631;42.152;24.756;2023-04-01T13:06:30;97762.78;;;19.96;56.52
7180;BME280;3631;42.152;24.756;2023-04-01T13:09:24;97763.31;;;20.00;56.62
7180;BME280;3631;42.152;24.756;2023-04-01T13:12:35;97740.91;;;19.96;56.29
7180;BME280;3631;42.152;24.756;2023-04-01T13:15:26;97727.56;;;19.70;56.61
7180;BME280;3631;42.152;24.756;2023-04-01T13:18:20;97745.47;;;19.56;57.06
7180;BME280;3631;42.152;24.756;2023-04-01T13:21:02;97752.38;;;19.57;56.99
7180;BME280;3631;42.152;24.756;2023-04-01T13:23:48;97752.50;;;19.66;56.14
7180;BME280;3631;42.152;24.756;2023-04-01T13:26:27;97748.88;;;19.67;55.34
7180;BME280;3631;42.152;24.756;2023-04-01T13:29:20;97764.69;;;19.67;55.20
7180;BME280;3631;42.152;24.756;2023-04-01T13:32:28;97799.19;;;19.44;55.47
7180;BME280;3631;42.152;24.756;2023-04-01T13:35:18;97865.97;;;19.05;56.50
7180;BME280;3631;42.152;24.756;2023-04-01T13:38:26;97889.97;;;18.71;56.72
7180;BME280;3631;42.152;24.756;2023-04-01T13:41:07;97891.75;;;18.40;58.55
7180;BME280;3631;42.152;24.756;2023-04-01T13:43:49;97895.91;;;18.03;58.87
7180;BME280;3631;42.152;24.756;2023-04-01T13:46:41;97901.59;;;17.87;60.95
7180;BME280;3631;42.152;24.756;2023-04-01T13:49:51;97871.47;;;17.50;61.92
7180;BME280;3631;42.152;24.756;2023-04-01T13:55:57;97976.72;;;17.35;64.70
7180;BME280;3631;42.152;24.756;2023-04-01T14:02:04;97980.69;;;17.08;65.99
7180;BME280;3631;42.152;24.756;2023-04-01T14:05:02;97989.31;;;16.87;67.97
7180;BME280;3631;42.152;24.756;2023-04-01T14:07:57;97997.03;;;16.55;71.83
7180;BME280;3631;42.152;24.756;2023-04-01T14:10:53;98020.94;;;16.51;76.18
7180;BME280;3631;42.152;24.756;2023-04-01T14:13:58;98016.91;;;16.47;78.41
7180;BME280;3631;42.152;24.756;2023-04-01T14:17:16;98023.34;;;16.54;79.61
7180;BME280;3631;42.152;24.756;2023-04-01T14:20:30;98025.81;;;16.44;79.84
7180;BME280;3631;42.152;24.756;2023-04-01T14:23:37;98006.78;;;16.42;79.57
7180;BME280;3631;42.152;24.756;2023-04-01T14:26:49;98005.50;;;16.59;77.86
7180;BME280;3631;42.152;24.756;2023-04-01T14:30:05;97997.28;;;16.86;74.73
7180;BME280;3631;42.152;24.756;2023-04-01T14:49:29;97950.00;;;16.43;76.54
7180;BME280;3631;42.152;24.756;2023-04-01T14:52:53;97950.00;;;16.54;76.57
7180;BME280;3631;42.152;24.756;2023-04-01T14:55:53;97960.34;;;16.55;77.71
7180;BME280;3631;42.152;24.756;2023-04-01T14:58:57;97942.47;;;16.49;80.12
7180;BME280;3631;42.152;24.756;2023-04-01T15:01:45;97959.16;;;16.48;84.63
7180;BME280;3631;42.152;24.756;2023-04-01T15:04:57;97947.72;;;16.38;88.34
7180;BME280;3631;42.152;24.756;2023-04-01T15:07:51;97936.88;;;16.20;92.75
7180;BME280;3631;42.152;24.756;2023-04-01T15:10:51;97941.38;;;16.07;95.34
7180;BME280;3631;42.152;24.756;2023-04-01T15:14:07;97939.06;;;15.80;98.40
7180;BME280;3631;42.152;24.756;2023-04-01T15:17:37;97940.66;;;15.59;100.00
7180;BME280;3631;42.152;24.756;2023-04-01T15:20:48;97945.56;;;15.64;100.00
7180;BME280;3631;42.152;24.756;2023-04-01T15:23:34;97943.31;;;15.46;100.00
7180;BME280;3631;42.152;24.756;2023-04-01T15:26:38;97947.00;;;15.44;100.00
7180;BME280;3631;42.152;24.756;2023-04-01T15:29:37;97937.97;;;15.48;100.00
7180;BME280;3631;42.152;24.756;2023-04-01T15:32:30;97929.81;;;15.52;100.00
7180;BME280;3631;42.152;24.756;2023-04-01T15:35:26;97929.19;;;15.49;99.31
7180;BME280;3631;42.152;24.756;2023-04-01T15:38:22;97923.75;;;15.52;97.81
7180;BME280;3631;42.152;24.756;2023-04-01T15:41:09;97926.91;;;15.57;96.77
7180;BME280;3631;42.152;24.756;2023-04-01T15:43:44;97911.56;;;15.40;97.69
7180;BME280;3631;42.152;24.756;2023-04-01T15:46:41;97925.47;;;15.40;99.18
7180;BME280;3631;42.152;24.756;2023-04-01T15:49:27;97920.25;;;15.40;98.92
7180;BME280;3631;42.152;24.756;2023-04-01T15:52:38;97914.81;;;15.43;98.39
7180;BME280;3631;42.152;24.756;2023-04-01T15:55:31;97912.75;;;15.36;98.35
7180;BME280;3631;42.152;24.756;2023-04-01T15:58:40;97910.53;;;15.42;98.27
7180;BME280;3631;42.152;24.756;2023-04-01T16:01:31;97919.56;;;15.49;96.57
7180;BME280;3631;42.152;24.756;2023-04-01T16:07:29;97928.00;;;15.42;95.95
7180;BME280;3631;42.152;24.756;2023-04-01T16:13:54;97943.47;;;15.45;95.80
7180;BME280;3631;42.152;24.756;2023-04-01T16:16:39;97956.53;;;15.45;95.48
7180;BME280;3631;42.152;24.756;2023-04-01T16:22:25;97968.53;;;15.47;95.64
7180;BME280;3631;42.152;24.756;2023-04-01T16:25:29;97973.84;;;15.35;96.55
7180;BME280;3631;42.152;24.756;2023-04-01T16:28:25;97991.41;;;15.33;95.53
7180;BME280;3631;42.152;24.756;2023-04-01T16:31:30;97993.28;;;15.31;95.85
7180;BME280;3631;42.152;24.756;2023-04-01T16:34:10;98001.56;;;15.24;97.10
7180;BME280;3631;42.152;24.756;2023-04-01T16:36:44;97995.09;;;15.17;96.21
7180;BME280;3631;42.152;24.756;2023-04-01T16:39:32;97991.66;;;15.17;96.00
7180;BME280;3631;42.152;24.756;2023-04-01T16:42:22;98015.28;;;15.15;95.10
7180;BME280;3631;42.152;24.756;2023-04-01T16:45:08;98014.91;;;15.09;93.66
7180;BME280;3631;42.152;24.756;2023-04-01T16:47:56;98029.53;;;15.11;95.27
7180;BME280;3631;42.152;24.756;2023-04-01T16:50:51;98029.75;;;15.08;98.39
7180;BME280;3631;42.152;24.756;2023-04-01T16:53:41;98021.81;;;14.97;100.00
7180;BME280;3631;42.152;24.756;2023-04-01T16:56:23;98012.03;;;14.88;100.00
7180;BME280;3631;42.152;24.756;2023-04-01T16:59:14;98005.97;;;14.75;100.00
7180;BME280;3631;42.152;24.756;2023-04-01T17:02:04;97986.16;;;14.60;100.00
7180;BME280;3631;42.152;24.756;2023-04-01T17:05:03;97986.78;;;14.50;100.00
7180;BME280;3631;42.152;24.756;2023-04-01T17:08:01;97960.38;;;14.42;100.00
7180;BME280;3631;42.152;24.756;2023-04-01T17:10:46;97947.53;;;14.39;100.00
7180;BME280;3631;42.152;24.756;2023-04-01T17:13:46;97937.63;;;14.32;100.00
7180;BME280;3631;42.152;24.756;2023-04-01T17:16:57;97919.75;;;14.13;100.00
7180;BME280;3631;42.152;24.756;2023-04-01T17:19:47;97959.22;;;14.21;100.00
7180;BME280;3631;42.152;24.756;2023-04-01T17:22:39;97954.22;;;14.18;100.00
7180;BME280;3631;42.152;24.756;2023-04-01T17:25:44;97959.22;;;14.08;100.00
7180;BME280;3631;42.152;24.756;2023-04-01T17:28:56;97964.19;;;14.11;100.00
7180;BME280;3631;42.152;24.756;2023-04-01T17:32:14;97973.94;;;14.09;100.00
7180;BME280;3631;42.152;24.756;2023-04-01T17:35:13;97987.69;;;14.11;100.00
7180;BME280;3631;42.152;24.756;2023-04-01T17:38:17;97986.03;;;14.10;100.00
7180;BME280;3631;42.152;24.756;2023-04-01T17:41:13;98006.38;;;14.05;100.00
7180;BME280;3631;42.152;24.756;2023-04-01T17:44:25;97998.34;;;13.96;100.00
7180;BME280;3631;42.152;24.756;2023-04-01T17:51:02;98149.16;;;14.16;100.00
7180;BME280;3631;42.152;24.756;2023-04-01T17:54:05;98150.72;;;13.92;100.00
7180;BME280;3631;42.152;24.756;2023-04-01T17:57:16;98134.84;;;13.82;100.00
7180;BME280;3631;42.152;24.756;2023-04-01T18:00:19;98143.16;;;13.74;99.74
7180;BME280;3631;42.152;24.756;2023-04-01T18:03:06;98176.81;;;13.92;93.29
7180;BME280;3631;42.152;24.756;2023-04-01T18:05:57;98178.50;;;13.93;89.85
7180;BME280;3631;42.152;24.756;2023-04-01T18:08:47;98179.53;;;13.90;86.97
7180;BME280;3631;42.152;24.756;2023-04-01T18:11:28;98194.16;;;13.93;87.16